createdAt,value
2022-10-17T00:02:16.299Z,15.06
2022-10-17T00:05:22.352Z,15.09
2022-10-17T00:08:28.071Z,14.91
2022-10-17T00:11:34.054Z,14.73
2022-10-17T00:14:39.721Z,14.94
2022-10-17T00:17:45.654Z,14.91
2022-10-17T00:20:52.174Z,14.85
2022-10-17T00:23:57.542Z,14.82
2022-10-17T00:27:04.331Z,15.12
2022-10-17T00:30:14.817Z,14.88
2022-10-17T00:33:20.370Z,14.70
2022-10-17T00:36:27.345Z,14.89
2022-10-17T00:39:33.193Z,15.06
2022-10-17T00:42:39.847Z,14.90
2022-10-17T00:45:45.691Z,14.99
2022-10-17T00:48:54.915Z,14.99
2022-10-17T00:52:03.618Z,15.06
2022-10-17T00:55:21.267Z,15.03
2022-10-17T00:58:27.883Z,14.90
2022-10-17T01:01:33.660Z,14.89
2022-10-17T01:04:42.617Z,14.99
2022-10-17T01:07:51.481Z,14.69
2022-10-17T01:11:31.826Z,14.49
2022-10-17T01:14:59.145Z,14.58
2022-10-17T01:18:34.223Z,14.57
2022-10-17T01:22:04.660Z,14.60
2022-10-17T01:25:47.225Z,14.51
2022-10-17T01:29:06.920Z,14.45
2022-10-17T01:32:51.354Z,14.46
2022-10-17T01:36:06.493Z,14.31
2022-10-17T01:39:32.531Z,14.19
2022-10-17T01:42:41.643Z,14.34
2022-10-17T01:46:12.349Z,14.59
2022-10-17T01:49:25.054Z,14.77
2022-10-17T01:52:57.685Z,14.85
2022-10-17T01:56:10.023Z,14.85
2022-10-17T01:59:39.921Z,14.76
2022-10-17T02:02:49.415Z,14.77
2022-10-17T02:06:13.648Z,14.69
2022-10-17T02:09:24.758Z,14.65
2022-10-17T02:12:57.990Z,14.61
2022-10-17T02:16:14.514Z,14.51
2022-10-17T02:19:48.230Z,14.44
2022-10-17T02:23:34.217Z,14.45
2022-10-17T02:27:05.836Z,14.53
2022-10-17T02:30:23.845Z,14.58
2022-10-17T02:33:52.154Z,14.55
2022-10-17T02:37:02.416Z,14.56
2022-10-17T02:40:28.256Z,14.41
2022-10-17T02:43:37.610Z,14.33
2022-10-17T02:47:09.659Z,14.34
2022-10-17T02:50:16.177Z,14.33
2022-10-17T02:53:43.661Z,14.34
2022-10-17T02:57:05.994Z,14.30
2022-10-17T03:00:31.424Z,14.33
2022-10-17T03:03:36.878Z,14.33
2022-10-17T03:07:01.156Z,14.26
2022-10-17T03:10:07.590Z,14.22
2022-10-17T03:13:35.029Z,14.19
2022-10-17T03:16:43.328Z,14.10
2022-10-17T03:20:07.703Z,13.92
2022-10-17T03:23:13.095Z,13.63
2022-10-17T03:26:37.425Z,13.53
2022-10-17T03:29:43.508Z,13.69
2022-10-17T03:33:08.105Z,13.83
2022-10-17T03:36:17.300Z,13.72
2022-10-17T03:39:42.985Z,13.74
2022-10-17T03:42:48.883Z,13.93
2022-10-17T03:46:13.960Z,13.87
2022-10-17T03:49:20.727Z,13.83
2022-10-17T03:52:45.033Z,13.85
2022-10-17T03:55:50.924Z,13.99
2022-10-17T03:59:15.510Z,14.04
2022-10-17T04:02:27.331Z,13.83
2022-10-17T04:05:51.390Z,13.70
2022-10-17T04:08:57.302Z,13.78
2022-10-17T04:12:06.553Z,13.73
2022-10-17T04:15:15.178Z,13.78
2022-10-17T04:18:20.547Z,13.75
2022-10-17T04:21:28.474Z,13.70
2022-10-17T04:24:35.046Z,13.64
2022-10-17T04:27:46.835Z,13.56
2022-10-17T04:31:03.760Z,13.49
2022-10-17T04:34:14.812Z,13.42
2022-10-17T04:37:19.973Z,13.42
2022-10-17T04:40:27.623Z,13.38
2022-10-17T04:43:36.971Z,13.48
2022-10-17T04:46:42.305Z,13.44
2022-10-17T04:49:47.474Z,13.65
2022-10-17T04:52:54.536Z,13.72
2022-10-17T04:56:00.204Z,13.69
2022-10-17T04:59:05.584Z,13.48
2022-10-17T05:02:10.734Z,13.39
2022-10-17T05:05:16.110Z,13.42
2022-10-17T05:08:24.090Z,13.42
2022-10-17T05:11:30.517Z,13.52
2022-10-17T05:14:35.611Z,13.48
2022-10-17T05:17:41.480Z,13.55
2022-10-17T05:20:46.829Z,13.50
2022-10-17T05:23:52.794Z,13.41
2022-10-17T05:26:58.328Z,13.53
2022-10-17T05:30:03.782Z,13.49
2022-10-17T05:33:12.331Z,13.44
2022-10-17T05:36:18.888Z,13.47
2022-10-17T05:39:24.701Z,13.44
2022-10-17T05:42:31.245Z,13.41
2022-10-17T05:45:37.625Z,13.33
2022-10-17T05:48:44.946Z,13.14
2022-10-17T05:51:50.193Z,13.18
2022-10-17T05:54:55.482Z,13.29
2022-10-17T05:58:02.071Z,13.33
2022-10-17T06:01:13.692Z,13.39
2022-10-17T06:04:19.214Z,13.44
2022-10-17T06:07:24.962Z,13.50
2022-10-17T06:10:31.217Z,13.57
2022-10-17T06:13:39.347Z,13.73
2022-10-17T06:16:50.909Z,13.79
2022-10-17T06:19:57.543Z,13.89
2022-10-17T06:23:03.212Z,13.92
2022-10-17T06:26:34.571Z,13.70
2022-10-17T06:29:40.803Z,13.83
2022-10-17T06:32:46.362Z,14.02
2022-10-17T06:35:56.649Z,13.78
2022-10-17T06:39:03.535Z,14.04
2022-10-17T06:42:15.318Z,14.15
2022-10-17T06:45:48.245Z,14.33
2022-10-17T06:49:11.072Z,14.50
2022-10-17T06:52:22.726Z,14.61
2022-10-17T06:55:54.364Z,14.71
2022-10-17T06:59:24.177Z,14.84
2022-10-17T07:02:37.088Z,14.90
2022-10-17T07:05:42.180Z,14.85
2022-10-17T07:08:47.697Z,14.93
2022-10-17T07:11:56.437Z,15.03
2022-10-17T07:15:04.541Z,14.95
2022-10-17T07:18:11.308Z,14.66
2022-10-17T07:21:18.391Z,15.00
2022-10-17T07:24:24.243Z,15.21
2022-10-17T07:27:43.238Z,15.32
2022-10-17T07:30:52.005Z,15.24
2022-10-17T07:34:01.000Z,15.37
2022-10-17T07:37:07.866Z,15.55
2022-10-17T07:40:13.631Z,15.79
2022-10-17T07:43:19.031Z,15.79
2022-10-17T07:46:25.601Z,15.75
2022-10-17T07:49:31.328Z,15.97
2022-10-17T07:52:36.577Z,16.06
2022-10-17T07:55:43.061Z,16.14
2022-10-17T07:58:48.639Z,16.08
2022-10-17T08:01:57.398Z,16.28
2022-10-17T08:05:02.455Z,16.31
2022-10-17T08:08:08.817Z,16.45
2022-10-17T08:11:16.341Z,16.63
2022-10-17T08:14:22.082Z,16.86
2022-10-17T08:17:28.248Z,16.79
2022-10-17T08:20:33.572Z,17.01
2022-10-17T08:23:39.968Z,17.08
2022-10-17T08:26:48.287Z,17.09
2022-10-17T08:29:56.093Z,17.30
2022-10-17T08:33:01.653Z,17.38
2022-10-17T08:36:08.886Z,17.65
2022-10-17T08:39:14.182Z,17.75
2022-10-17T08:42:55.437Z,17.72
2022-10-17T08:46:08.031Z,17.97
2022-10-17T08:49:37.382Z,17.98
2022-10-17T08:52:52.425Z,18.14
2022-10-17T08:56:00.630Z,18.00
2022-10-17T08:59:17.795Z,18.27
2022-10-17T09:02:40.309Z,18.26
2022-10-17T09:06:02.141Z,18.33
2022-10-17T09:09:25.297Z,18.43
2022-10-17T09:12:57.404Z,18.46
2022-10-17T09:16:15.395Z,18.54
2022-10-17T09:19:24.870Z,18.66
2022-10-17T09:23:04.782Z,18.49
2022-10-17T09:26:11.973Z,18.41
2022-10-17T09:29:30.873Z,18.70
2022-10-17T09:32:41.422Z,18.72
2022-10-17T09:35:48.319Z,18.81
2022-10-17T09:39:00.258Z,18.89
2022-10-17T09:42:05.842Z,18.93
2022-10-17T09:45:11.400Z,18.96
2022-10-17T09:48:25.556Z,19.07
2022-10-17T09:51:32.693Z,19.09
2022-10-17T09:55:03.602Z,19.16
2022-10-17T09:58:10.856Z,19.18
2022-10-17T10:01:24.225Z,19.18
2022-10-17T10:04:30.468Z,19.26
2022-10-17T10:07:45.103Z,19.46
2022-10-17T10:10:59.480Z,19.40
2022-10-17T10:14:13.925Z,19.58
2022-10-17T10:17:44.440Z,19.52
2022-10-17T10:21:14.305Z,19.53
2022-10-17T10:24:20.640Z,19.70
2022-10-17T10:27:27.608Z,19.76
2022-10-17T10:30:36.195Z,19.92
2022-10-17T10:33:49.453Z,19.82
2022-10-17T10:37:16.990Z,20.08
2022-10-17T10:40:38.317Z,20.08
2022-10-17T10:43:48.061Z,20.01
2022-10-17T10:47:16.953Z,20.12
2022-10-17T10:50:34.754Z,20.36
2022-10-17T10:54:00.225Z,20.22
2022-10-17T10:57:12.144Z,20.28
2022-10-17T11:00:23.917Z,20.20
2022-10-17T11:03:51.508Z,20.27
2022-10-17T11:07:13.919Z,20.33
2022-10-17T11:10:58.462Z,20.44
2022-10-17T11:14:41.446Z,20.45
2022-10-17T11:17:57.409Z,20.30
2022-10-17T11:21:36.974Z,20.62
2022-10-17T11:25:11.853Z,20.64
2022-10-17T11:28:20.999Z,20.57
2022-10-17T11:31:33.218Z,20.74
2022-10-17T11:35:01.377Z,20.58
2022-10-17T11:38:18.316Z,20.79
2022-10-17T11:41:45.907Z,21.01
2022-10-17T11:45:06.914Z,20.89
2022-10-17T11:48:20.997Z,20.97
2022-10-17T11:54:58.297Z,21.23
2022-10-17T11:58:16.128Z,21.19
2022-10-17T12:01:53.001Z,21.28
2022-10-17T12:05:14.086Z,21.16
2022-10-17T12:08:38.168Z,21.26
2022-10-17T12:11:55.959Z,21.44
2022-10-17T12:15:14.105Z,21.38
2022-10-17T12:18:19.709Z,21.45
2022-10-17T12:21:27.323Z,21.63
2022-10-17T12:24:44.913Z,21.76
2022-10-17T12:27:51.485Z,21.78
2022-10-17T12:31:13.376Z,21.82
2022-10-17T12:34:24.249Z,21.94
2022-10-17T12:37:51.269Z,21.68
2022-10-17T12:41:00.989Z,21.63
2022-10-17T12:44:15.553Z,21.81
2022-10-17T12:47:36.964Z,21.89
2022-10-17T12:51:30.739Z,21.92
2022-10-17T12:54:27.420Z,21.96
2022-10-17T12:57:38.946Z,21.92
2022-10-17T13:01:05.309Z,21.78
2022-10-17T13:04:16.604Z,21.96
2022-10-17T13:07:23.943Z,22.14
2022-10-17T13:10:34.165Z,22.08
2022-10-17T13:13:49.167Z,22.13
2022-10-17T13:17:06.552Z,22.09
2022-10-17T13:20:29.056Z,21.94
2022-10-17T13:23:38.314Z,22.15
2022-10-17T13:26:46.060Z,22.31
2022-10-17T13:29:51.186Z,22.32
2022-10-17T13:32:57.569Z,22.46
2022-10-17T13:36:08.053Z,22.34
2022-10-17T13:39:23.151Z,22.21
2022-10-17T13:42:40.749Z,22.34
2022-10-17T13:45:52.801Z,22.21
2022-10-17T13:49:00.582Z,22.21
2022-10-17T13:52:16.112Z,22.28
2022-10-17T13:55:22.295Z,22.32
2022-10-17T13:58:35.543Z,22.22
2022-10-17T14:01:41.230Z,22.25
2022-10-17T14:08:22.891Z,22.24
2022-10-17T14:11:41.773Z,22.29
2022-10-17T14:18:33.286Z,22.32
2022-10-17T14:21:44.671Z,22.29
2022-10-17T14:24:53.506Z,22.15
2022-10-17T14:28:08.249Z,22.13
2022-10-17T14:31:26.053Z,22.14
2022-10-17T14:34:37.697Z,22.11
2022-10-17T14:37:46.664Z,22.08
2022-10-17T14:41:09.826Z,22.09
2022-10-17T14:44:31.161Z,22.14
2022-10-17T14:47:43.524Z,22.09
2022-10-17T14:51:16.677Z,22.02
2022-10-17T14:54:29.523Z,22.02
2022-10-17T14:57:43.630Z,21.93
2022-10-17T15:00:49.241Z,21.90
2022-10-17T15:03:54.371Z,21.85
2022-10-17T15:06:59.633Z,21.93
2022-10-17T15:10:06.334Z,21.87
2022-10-17T15:13:27.807Z,21.71
2022-10-17T15:16:35.476Z,21.75
2022-10-17T15:19:40.502Z,21.62
2022-10-17T15:22:46.124Z,21.62
2022-10-17T15:25:52.431Z,21.50
2022-10-17T15:28:59.276Z,21.44
2022-10-17T15:32:04.512Z,21.43
2022-10-17T15:35:10.032Z,21.42
2022-10-17T15:38:18.547Z,21.32
2022-10-17T15:41:27.064Z,21.27
2022-10-17T15:44:33.524Z,21.17
2022-10-17T15:47:39.290Z,21.12
2022-10-17T15:50:45.777Z,21.04
2022-10-17T15:53:52.948Z,20.96
2022-10-17T15:56:58.695Z,20.87
2022-10-17T16:00:07.009Z,20.82
2022-10-17T16:03:14.577Z,20.71
2022-10-17T16:06:21.801Z,20.64
2022-10-17T16:09:28.145Z,20.53
2022-10-17T16:12:41.452Z,20.48
2022-10-17T16:15:47.045Z,20.35
2022-10-17T16:18:55.666Z,20.25
2022-10-17T16:22:04.505Z,20.07
2022-10-17T16:25:28.606Z,19.94
2022-10-17T16:28:34.977Z,19.83
2022-10-17T16:31:43.590Z,19.70
2022-10-17T16:34:58.558Z,19.62
2022-10-17T16:38:17.492Z,19.58
2022-10-17T16:41:34.423Z,19.56
2022-10-17T16:44:43.167Z,19.48
2022-10-17T16:48:05.200Z,19.39
2022-10-17T16:52:00.789Z,19.39
2022-10-17T16:55:10.581Z,19.30
2022-10-17T16:58:16.066Z,19.26
2022-10-17T17:01:24.024Z,19.21
2022-10-17T17:04:29.729Z,19.09
2022-10-17T17:07:35.954Z,19.00
2022-10-17T17:10:47.621Z,18.97
2022-10-17T17:13:59.168Z,18.90
2022-10-17T17:17:04.674Z,18.85
2022-10-17T17:20:10.652Z,18.67
2022-10-17T17:23:16.947Z,18.69
2022-10-17T17:26:23.436Z,18.68
2022-10-17T17:29:29.091Z,18.67
2022-10-17T17:32:34.099Z,18.63
2022-10-17T17:35:40.636Z,18.62
2022-10-17T17:38:47.058Z,18.58
2022-10-17T17:41:52.525Z,18.54
2022-10-17T17:44:57.987Z,18.26
2022-10-17T17:48:04.006Z,18.27
2022-10-17T17:51:12.099Z,18.25
2022-10-17T17:54:17.634Z,18.12
2022-10-17T17:57:23.358Z,18.11
2022-10-17T18:00:29.437Z,17.96
2022-10-17T18:03:35.035Z,17.93
2022-10-17T18:06:40.900Z,17.91
2022-10-17T18:09:46.016Z,17.94
2022-10-17T18:12:51.246Z,17.88
2022-10-17T18:16:01.442Z,17.90
2022-10-17T18:19:11.618Z,17.85
2022-10-17T18:22:19.981Z,17.83
2022-10-17T18:25:27.950Z,17.83
2022-10-17T18:28:36.652Z,17.84
2022-10-17T18:31:42.446Z,17.86
2022-10-17T18:34:47.229Z,17.75
2022-10-17T18:37:52.417Z,17.84
2022-10-17T18:41:18.516Z,17.50
2022-10-17T18:44:24.134Z,17.45
2022-10-17T18:47:30.062Z,17.36
2022-10-17T18:50:39.086Z,17.35
2022-10-17T18:53:47.994Z,17.27
2022-10-17T18:56:55.234Z,17.32
2022-10-17T19:00:00.879Z,17.38
2022-10-17T19:03:08.148Z,17.34
2022-10-17T19:06:19.899Z,17.31
2022-10-17T19:09:25.465Z,17.25
2022-10-17T19:12:31.100Z,17.26
2022-10-17T19:15:37.284Z,17.19
2022-10-17T19:18:43.797Z,17.17
2022-10-17T19:21:50.493Z,17.21
2022-10-17T19:24:56.175Z,17.16
2022-10-17T19:28:01.842Z,17.08
2022-10-17T19:31:07.668Z,17.03
2022-10-17T19:34:14.822Z,17.03
2022-10-17T19:37:19.933Z,17.01
2022-10-17T19:40:25.434Z,16.88
2022-10-17T19:43:31.253Z,16.93
2022-10-17T19:46:37.514Z,16.89
2022-10-17T19:49:47.687Z,16.84
2022-10-17T19:52:55.477Z,16.80
2022-10-17T19:56:02.194Z,16.76
2022-10-17T19:59:09.645Z,16.82
2022-10-17T20:02:16.070Z,16.76
2022-10-17T20:05:25.962Z,16.85
2022-10-17T20:08:33.429Z,16.77
2022-10-17T20:11:38.485Z,16.79
2022-10-17T20:14:44.450Z,16.82
2022-10-17T20:17:49.878Z,16.83
2022-10-17T20:20:56.462Z,16.78
2022-10-17T20:24:03.977Z,16.75
2022-10-17T20:27:09.549Z,16.83
2022-10-17T20:30:15.265Z,16.70
2022-10-17T20:33:20.841Z,16.64
2022-10-17T20:36:27.219Z,16.60
2022-10-17T20:39:32.868Z,16.61
2022-10-17T20:42:38.585Z,16.59
2022-10-17T20:45:51.510Z,16.62
2022-10-17T20:48:58.995Z,16.52
2022-10-17T20:52:04.731Z,16.55
2022-10-17T20:55:10.506Z,16.52
2022-10-17T20:58:16.049Z,16.47
2022-10-17T21:01:22.682Z,16.46
2022-10-17T21:04:47.005Z,16.49
2022-10-17T21:07:52.850Z,16.37
2022-10-17T21:11:13.630Z,16.07
2022-10-17T21:14:19.370Z,16.16
2022-10-17T21:17:25.594Z,16.19
2022-10-17T21:20:31.383Z,16.21
2022-10-17T21:23:37.270Z,16.18
2022-10-17T21:26:44.101Z,16.12
2022-10-17T21:29:49.995Z,16.03
2022-10-17T21:32:55.904Z,16.02
2022-10-17T21:36:01.498Z,16.04
2022-10-17T21:42:19.577Z,16.06
2022-10-17T21:45:26.241Z,16.00
2022-10-17T21:48:33.119Z,15.98
2022-10-17T21:51:39.429Z,15.97
2022-10-17T21:54:45.067Z,15.72
2022-10-17T21:57:52.133Z,15.84
2022-10-17T22:01:12.665Z,15.78
2022-10-17T22:04:20.054Z,15.55
2022-10-17T22:07:25.983Z,15.54
2022-10-17T22:10:31.780Z,15.50
2022-10-17T22:13:38.517Z,15.48
2022-10-17T22:16:48.048Z,15.51
2022-10-17T22:19:53.365Z,15.49
2022-10-17T22:22:59.282Z,15.41
2022-10-17T22:26:06.092Z,15.26
2022-10-17T22:29:12.221Z,15.26
2022-10-17T22:32:21.512Z,15.36
2022-10-17T22:35:28.590Z,15.40
2022-10-17T22:38:34.825Z,15.45
2022-10-17T22:41:40.307Z,15.43
2022-10-17T22:44:47.010Z,15.26
2022-10-17T22:47:54.072Z,15.36
2022-10-17T22:51:00.469Z,15.31
2022-10-17T22:54:06.295Z,15.32
2022-10-17T22:57:13.039Z,15.31
2022-10-17T23:00:18.573Z,15.28
2022-10-17T23:03:27.077Z,15.23
2022-10-17T23:06:32.103Z,15.11
2022-10-17T23:09:37.860Z,15.11
2022-10-17T23:12:43.756Z,15.14
2022-10-17T23:15:54.369Z,15.18
2022-10-17T23:18:59.910Z,15.08
2022-10-17T23:22:06.806Z,14.98
2022-10-17T23:25:12.052Z,14.97
2022-10-17T23:28:18.173Z,14.96
2022-10-17T23:31:23.573Z,14.91
2022-10-17T23:34:30.805Z,14.92
2022-10-17T23:37:36.584Z,14.93
2022-10-17T23:40:42.534Z,14.92
2022-10-17T23:43:48.009Z,14.84
2022-10-17T23:46:53.959Z,14.80
2022-10-17T23:49:59.704Z,14.82
2022-10-17T23:53:05.471Z,14.86
2022-10-17T23:56:11.833Z,14.88
2022-10-17T23:59:17.525Z,14.84
